createdAt,value
2022-08-07T00:00:26.247Z,19.33
2022-08-07T00:03:06.429Z,19.54
2022-08-07T00:05:37.655Z,19.10
2022-08-07T00:08:07.752Z,18.47
2022-08-07T00:10:48.090Z,18.39
2022-08-07T00:13:26.751Z,18.93
2022-08-07T00:15:55.345Z,19.33
2022-08-07T00:18:26.370Z,19.16
2022-08-07T00:21:07.945Z,19.12
2022-08-07T00:23:39.585Z,19.18
2022-08-07T00:26:18.835Z,19.06
2022-08-07T00:28:57.761Z,19.02
2022-08-07T00:31:38.038Z,18.99
2022-08-07T00:34:09.686Z,19.37
2022-08-07T00:36:43.291Z,19.32
2022-08-07T00:39:16.467Z,19.35
2022-08-07T00:42:01.974Z,19.36
2022-08-07T00:44:34.263Z,19.48
2022-08-07T00:47:03.374Z,19.36
2022-08-07T00:50:19.337Z,19.43
2022-08-07T00:52:22.406Z,19.41
2022-08-07T00:54:53.549Z,18.94
2022-08-07T00:57:25.971Z,18.95
2022-08-07T00:59:54.520Z,19.07
2022-08-07T01:02:29.100Z,18.92
2022-08-07T01:04:59.177Z,18.74
2022-08-07T01:07:29.232Z,18.76
2022-08-07T01:10:06.300Z,18.88
2022-08-07T01:12:53.989Z,19.00
2022-08-07T01:15:35.641Z,18.95
2022-08-07T01:18:16.771Z,18.96
2022-08-07T01:20:59.472Z,19.15
2022-08-07T01:23:38.104Z,19.36
2022-08-07T01:26:12.175Z,19.32
2022-08-07T01:28:48.514Z,19.16
2022-08-07T01:31:22.089Z,19.05
2022-08-07T01:33:56.172Z,18.92
2022-08-07T01:36:33.976Z,19.07
2022-08-07T01:39:14.292Z,19.16
2022-08-07T01:42:06.163Z,19.37
2022-08-07T01:44:35.457Z,19.17
2022-08-07T01:48:16.930Z,19.17
2022-08-07T01:49:54.721Z,19.23
2022-08-07T01:52:24.291Z,19.41
2022-08-07T01:54:55.325Z,19.38
2022-08-07T01:57:28.246Z,19.39
2022-08-07T02:00:13.065Z,19.20
2022-08-07T02:03:19.335Z,18.82
2022-08-07T02:05:55.304Z,18.86
2022-08-07T02:08:28.558Z,18.67
2022-08-07T02:10:59.594Z,18.51
2022-08-07T02:13:56.617Z,18.43
2022-08-07T02:16:19.663Z,18.42
2022-08-07T02:18:49.066Z,18.43
2022-08-07T02:21:19.103Z,18.21
2022-08-07T02:23:46.944Z,18.29
2022-08-07T02:26:32.950Z,18.63
2022-08-07T02:29:05.077Z,18.79
2022-08-07T02:31:33.148Z,18.86
2022-08-07T02:34:10.946Z,19.03
2022-08-07T02:36:43.775Z,18.77
2022-08-07T02:39:17.508Z,18.75
2022-08-07T02:42:10.071Z,18.74
2022-08-07T02:44:48.179Z,18.60
2022-08-07T02:47:45.574Z,18.58
2022-08-07T02:50:14.718Z,18.63
2022-08-07T02:53:20.019Z,18.66
2022-08-07T02:56:03.251Z,18.54
2022-08-07T02:58:35.129Z,18.34
2022-08-07T03:01:04.190Z,18.50
2022-08-07T03:03:50.131Z,18.63
2022-08-07T03:06:34.582Z,18.91
2022-08-07T03:09:10.995Z,18.79
2022-08-07T03:11:52.662Z,18.71
2022-08-07T03:14:28.027Z,18.77
2022-08-07T03:16:56.979Z,18.41
2022-08-07T03:19:28.924Z,18.60
2022-08-07T03:21:58.721Z,18.80
2022-08-07T03:24:28.238Z,18.36
2022-08-07T03:27:02.968Z,18.52
2022-08-07T03:29:49.637Z,18.56
2022-08-07T03:32:38.748Z,18.63
2022-08-07T03:35:18.136Z,18.25
2022-08-07T03:37:56.660Z,18.55
2022-08-07T03:40:31.070Z,18.54
2022-08-07T03:43:04.582Z,18.44
2022-08-07T03:45:43.413Z,18.47
2022-08-07T03:48:16.128Z,18.64
2022-08-07T03:50:55.643Z,18.72
2022-08-07T03:53:30.286Z,18.85
2022-08-07T03:56:32.468Z,18.77
2022-08-07T03:59:10.157Z,18.76
2022-08-07T04:01:45.427Z,18.83
2022-08-07T04:04:17.387Z,18.89
2022-08-07T04:06:46.631Z,19.19
2022-08-07T04:09:23.257Z,19.01
2022-08-07T04:12:24.147Z,19.15
2022-08-07T04:14:45.964Z,19.10
2022-08-07T04:17:21.134Z,18.86
2022-08-07T04:19:54.419Z,19.07
2022-08-07T04:22:27.411Z,19.15
2022-08-07T04:25:00.866Z,19.42
2022-08-07T04:27:36.139Z,19.21
2022-08-07T04:30:21.197Z,18.15
2022-08-07T04:33:10.213Z,18.06
2022-08-07T04:35:50.175Z,18.53
2022-08-07T04:38:18.677Z,18.70
2022-08-07T04:40:51.769Z,18.58
2022-08-07T04:44:09.982Z,18.65
2022-08-07T04:46:34.855Z,18.77
2022-08-07T04:49:18.422Z,18.89
2022-08-07T04:52:00.156Z,18.92
2022-08-07T04:58:15.549Z,18.88
2022-08-07T04:58:38.775Z,19.08
2022-08-07T05:01:54.530Z,19.25
2022-08-07T05:04:34.042Z,18.48
2022-08-07T05:07:20.482Z,18.15
2022-08-07T05:10:18.424Z,18.73
2022-08-07T05:13:01.575Z,19.23
2022-08-07T05:15:51.261Z,19.25
2022-08-07T05:18:30.082Z,18.57
2022-08-07T05:21:03.856Z,18.05
2022-08-07T05:23:47.616Z,18.03
2022-08-07T05:26:24.425Z,18.85
2022-08-07T05:28:57.447Z,19.51
2022-08-07T05:31:35.229Z,19.55
2022-08-07T05:34:11.253Z,19.74
2022-08-07T05:36:52.991Z,20.22
2022-08-07T05:40:05.660Z,20.95
2022-08-07T05:42:37.007Z,21.03
2022-08-07T05:45:25.908Z,20.91
2022-08-07T05:48:02.364Z,20.69
2022-08-07T05:50:39.590Z,20.40
2022-08-07T05:54:13.678Z,20.17
2022-08-07T05:56:02.295Z,20.04
2022-08-07T05:58:36.260Z,19.79
2022-08-07T06:01:10.615Z,19.64
2022-08-07T06:03:57.028Z,19.51
2022-08-07T06:06:29.883Z,19.37
2022-08-07T06:09:04.350Z,19.30
2022-08-07T06:11:34.246Z,19.31
2022-08-07T06:14:12.620Z,19.26
2022-08-07T06:16:50.449Z,19.34
2022-08-07T06:19:52.006Z,19.29
2022-08-07T06:22:22.741Z,19.14
2022-08-07T06:25:01.187Z,19.08
2022-08-07T06:28:00.412Z,19.03
2022-08-07T06:30:24.089Z,18.96
2022-08-07T06:33:00.978Z,19.02
2022-08-07T06:35:30.594Z,19.07
2022-08-07T06:38:08.270Z,19.07
2022-08-07T06:40:50.394Z,19.07
2022-08-07T06:43:21.188Z,18.93
2022-08-07T06:46:11.597Z,18.85
2022-08-07T06:48:42.100Z,18.95
2022-08-07T06:51:31.047Z,19.10
2022-08-07T06:55:29.493Z,19.54
2022-08-07T06:56:51.979Z,20.02
2022-08-07T07:00:14.843Z,21.61
2022-08-07T07:02:49.236Z,24.20
2022-08-07T07:05:12.675Z,26.00
2022-08-07T07:08:00.148Z,27.38
2022-08-07T07:10:33.725Z,28.15
2022-08-07T07:13:16.627Z,28.80
2022-08-07T07:16:19.724Z,29.03
2022-08-07T07:18:51.989Z,28.69
2022-08-07T07:21:40.372Z,28.03
2022-08-07T07:24:17.341Z,28.07
2022-08-07T07:26:49.733Z,27.74
2022-08-07T07:29:39.904Z,27.49
2022-08-07T07:32:14.251Z,26.81
2022-08-07T07:34:46.189Z,26.14
2022-08-07T07:37:22.140Z,25.80
2022-08-07T07:40:15.788Z,25.26
2022-08-07T07:42:51.077Z,25.25
2022-08-07T07:46:37.011Z,26.52
2022-08-07T07:48:34.907Z,26.75
2022-08-07T07:51:08.116Z,27.38
2022-08-07T07:53:51.504Z,28.12
2022-08-07T07:56:29.938Z,27.72
2022-08-07T07:59:06.101Z,27.48
2022-08-07T08:02:03.893Z,27.61
2022-08-07T08:04:25.655Z,27.42
2022-08-07T08:06:54.301Z,27.87
2022-08-07T08:09:29.443Z,27.91
2022-08-07T08:12:02.336Z,27.92
2022-08-07T08:14:34.423Z,27.73
2022-08-07T08:17:55.266Z,27.54
2022-08-07T08:20:22.325Z,27.11
2022-08-07T08:23:08.433Z,26.99
2022-08-07T08:26:03.347Z,26.75
2022-08-07T08:28:39.211Z,26.58
2022-08-07T08:31:30.399Z,26.33
2022-08-07T08:34:26.708Z,26.24
2022-08-07T08:36:57.905Z,25.53
2022-08-07T08:39:26.673Z,24.86
2022-08-07T08:42:18.451Z,24.30
2022-08-07T08:45:14.445Z,24.48
2022-08-07T08:48:35.919Z,24.11
2022-08-07T08:51:29.554Z,23.83
2022-08-07T08:54:15.190Z,23.39
2022-08-07T08:56:47.589Z,23.16
2022-08-07T08:59:30.460Z,23.21
2022-08-07T09:02:38.089Z,23.24
2022-08-07T09:06:18.080Z,22.95
2022-08-07T09:08:58.282Z,23.14
2022-08-07T09:11:50.534Z,22.87
2022-08-07T09:14:39.448Z,22.98
2022-08-07T09:17:26.245Z,22.82
2022-08-07T09:20:35.753Z,22.54
2022-08-07T09:24:32.117Z,22.44
2022-08-07T09:26:53.909Z,22.52
2022-08-07T09:30:03.183Z,22.31
2022-08-07T09:32:56.331Z,22.55
2022-08-07T09:36:05.468Z,22.63
2022-08-07T09:39:11.498Z,22.78
2022-08-07T09:42:23.057Z,22.83
2022-08-07T09:47:49.909Z,22.88
2022-08-07T09:48:21.426Z,23.04
2022-08-07T09:52:10.120Z,22.99
2022-08-07T09:54:47.604Z,22.71
2022-08-07T09:58:05.513Z,22.70
2022-08-07T10:00:52.185Z,22.95
2022-08-07T10:04:06.005Z,23.27
2022-08-07T10:07:06.681Z,23.35
2022-08-07T10:10:02.605Z,23.03
2022-08-07T10:12:52.948Z,23.08
2022-08-07T10:15:44.376Z,23.42
2022-08-07T10:18:26.336Z,23.35
2022-08-07T10:21:03.106Z,23.24
2022-08-07T10:24:21.689Z,23.25
2022-08-07T10:27:19.090Z,23.37
2022-08-07T10:29:57.038Z,23.48
2022-08-07T10:33:17.717Z,23.49
2022-08-07T10:36:29.770Z,23.48
2022-08-07T10:39:05.534Z,23.50
2022-08-07T10:41:51.651Z,23.71
2022-08-07T10:44:48.240Z,23.79
2022-08-07T10:47:52.854Z,23.51
2022-08-07T10:50:26.013Z,23.60
2022-08-07T10:53:10.001Z,23.61
2022-08-07T10:56:05.067Z,23.70
2022-08-07T10:59:07.156Z,23.46
2022-08-07T11:02:33.645Z,23.55
2022-08-07T11:05:48.883Z,23.59
2022-08-07T11:08:43.445Z,23.97
2022-08-07T11:11:21.345Z,23.79
2022-08-07T11:14:45.488Z,23.75
2022-08-07T11:17:23.005Z,23.81
2022-08-07T11:20:06.080Z,24.07
2022-08-07T11:23:30.804Z,24.19
2022-08-07T11:26:22.217Z,24.01
2022-08-07T11:29:13.046Z,24.21
2022-08-07T11:32:43.359Z,24.08
2022-08-07T11:35:25.084Z,24.10
2022-08-07T11:38:17.489Z,24.23
2022-08-07T11:41:06.280Z,24.13
2022-08-07T11:44:10.857Z,24.30
2022-08-07T11:47:01.873Z,24.34
2022-08-07T11:50:30.772Z,23.97
2022-08-07T11:53:25.417Z,24.02
2022-08-07T11:56:26.904Z,24.21
2022-08-07T12:00:08.179Z,24.53
2022-08-07T12:02:53.668Z,24.58
2022-08-07T12:05:50.744Z,24.47
2022-08-07T12:08:25.879Z,24.34
2022-08-07T12:11:21.271Z,24.37
2022-08-07T12:14:05.257Z,24.49
2022-08-07T12:16:44.940Z,24.43
2022-08-07T12:19:35.951Z,24.44
2022-08-07T12:22:47.002Z,24.66
2022-08-07T12:26:21.596Z,24.72
2022-08-07T12:28:53.154Z,24.67
2022-08-07T12:32:03.648Z,24.67
2022-08-07T12:34:36.219Z,24.77
2022-08-07T12:37:08.566Z,24.80
2022-08-07T12:39:50.992Z,24.75
2022-08-07T12:42:27.145Z,24.57
2022-08-07T12:45:04.437Z,24.65
2022-08-07T12:48:01.094Z,24.69
2022-08-07T12:50:49.063Z,24.52
2022-08-07T12:53:18.270Z,24.69
2022-08-07T12:56:12.727Z,24.74
2022-08-07T12:58:46.738Z,24.92
2022-08-07T13:01:45.413Z,24.54
2022-08-07T13:05:01.690Z,24.38
2022-08-07T13:08:11.900Z,24.64
2022-08-07T13:11:16.342Z,24.91
2022-08-07T13:14:05.852Z,24.88
2022-08-07T13:16:52.497Z,24.99
2022-08-07T13:20:02.842Z,24.98
2022-08-07T13:22:53.531Z,24.89
2022-08-07T13:25:30.039Z,24.73
2022-08-07T13:28:13.052Z,24.99
2022-08-07T13:31:02.122Z,25.13
2022-08-07T13:34:30.402Z,25.24
2022-08-07T13:37:32.262Z,25.13
2022-08-07T13:40:34.913Z,25.17
2022-08-07T13:43:00.004Z,25.24
2022-08-07T13:46:11.225Z,25.27
2022-08-07T13:48:27.570Z,25.30
2022-08-07T13:51:02.605Z,25.33
2022-08-07T13:54:00.874Z,25.48
2022-08-07T13:56:35.831Z,25.42
2022-08-07T13:59:27.206Z,25.34
2022-08-07T14:02:12.999Z,25.47
2022-08-07T14:04:48.983Z,25.38
2022-08-07T14:07:23.774Z,25.37
2022-08-07T14:10:15.019Z,25.42
2022-08-07T14:12:54.740Z,25.47
2022-08-07T14:15:39.789Z,25.30
2022-08-07T14:18:28.446Z,25.32
2022-08-07T14:22:03.921Z,25.47
2022-08-07T14:24:34.285Z,25.13
2022-08-07T14:28:11.418Z,25.14
2022-08-07T14:30:07.509Z,25.38
2022-08-07T14:32:59.905Z,25.32
2022-08-07T14:35:45.232Z,25.28
2022-08-07T14:38:26.818Z,25.30
2022-08-07T14:41:14.719Z,25.17
2022-08-07T14:46:33.268Z,24.92
2022-08-07T14:49:55.825Z,24.83
2022-08-07T14:54:41.683Z,24.71
2022-08-07T15:00:05.297Z,24.86
2022-08-07T15:02:36.866Z,24.77
2022-08-07T15:05:20.245Z,24.73
2022-08-07T15:13:35.910Z,24.92
2022-08-07T15:18:56.128Z,24.70
2022-08-07T15:27:26.315Z,24.43
2022-08-07T15:30:31.919Z,24.38
2022-08-07T15:33:05.485Z,24.46
2022-08-07T15:36:01.259Z,24.64
2022-08-07T15:42:45.246Z,24.72
2022-08-07T15:44:13.161Z,24.72
2022-08-07T15:46:49.985Z,24.82
2022-08-07T15:49:25.545Z,24.80
2022-08-07T15:52:13.735Z,24.73
2022-08-07T15:54:43.701Z,24.63
2022-08-07T15:57:40.363Z,24.67
2022-08-07T16:00:06.230Z,24.69
2022-08-07T16:02:46.962Z,24.52
2022-08-07T16:05:19.400Z,24.49
2022-08-07T16:08:31.754Z,24.41
2022-08-07T16:10:52.162Z,24.43
2022-08-07T16:13:58.765Z,24.48
2022-08-07T16:16:59.895Z,24.43
2022-08-07T16:19:42.883Z,24.38
2022-08-07T16:22:56.586Z,24.38
2022-08-07T16:25:54.117Z,24.31
2022-08-07T16:30:08.412Z,24.31
2022-08-07T16:31:50.022Z,24.27
2022-08-07T16:34:23.592Z,24.28
2022-08-07T16:37:03.026Z,24.24
2022-08-07T16:40:28.695Z,24.13
2022-08-07T16:43:12.816Z,24.16
2022-08-07T16:50:26.771Z,24.31
2022-08-07T16:53:56.990Z,24.25
2022-08-07T16:56:13.559Z,24.20
2022-08-07T16:59:14.356Z,24.17
2022-08-07T17:01:56.555Z,24.10
2022-08-07T17:04:32.291Z,23.99
2022-08-07T17:07:28.537Z,23.86
2022-08-07T17:10:32.327Z,23.74
2022-08-07T17:14:18.469Z,23.64
2022-08-07T17:16:55.509Z,23.49
2022-08-07T17:20:01.877Z,23.33
2022-08-07T17:22:37.513Z,23.19
2022-08-07T17:25:13.408Z,23.11
2022-08-07T17:28:00.732Z,23.03
2022-08-07T17:31:00.719Z,22.92
2022-08-07T17:34:15.514Z,22.78
2022-08-07T17:36:59.915Z,22.59
2022-08-07T17:39:57.728Z,22.38
2022-08-07T17:42:58.489Z,22.17
2022-08-07T17:45:38.646Z,21.95
2022-08-07T17:48:13.000Z,21.77
2022-08-07T17:51:02.596Z,21.60
2022-08-07T17:54:12.720Z,21.43
2022-08-07T17:56:49.681Z,21.26
2022-08-07T17:59:35.642Z,21.09
2022-08-07T18:02:17.426Z,20.90
2022-08-07T18:05:21.572Z,20.70
2022-08-07T18:08:25.647Z,20.51
2022-08-07T18:12:07.680Z,20.32
2022-08-07T18:14:24.203Z,20.10
2022-08-07T18:16:59.403Z,19.81
2022-08-07T18:21:09.921Z,19.59
2022-08-07T18:23:42.525Z,19.36
2022-08-07T18:26:01.534Z,19.23
2022-08-07T18:29:00.479Z,19.15
2022-08-07T18:31:58.616Z,19.04
2022-08-07T18:35:04.620Z,18.93
2022-08-07T18:38:59.168Z,18.83
2022-08-07T18:41:44.938Z,18.70
2022-08-07T18:45:09.273Z,18.60
2022-08-07T18:48:00.803Z,18.46
2022-08-07T18:50:40.772Z,18.35
2022-08-07T18:53:39.700Z,18.18
2022-08-07T18:56:30.838Z,17.98
2022-08-07T18:59:46.964Z,17.81
2022-08-07T19:02:34.169Z,17.69
2022-08-07T19:06:03.108Z,17.60
2022-08-07T19:09:00.473Z,17.54
2022-08-07T19:12:05.109Z,17.45
2022-08-07T19:14:57.817Z,17.32
2022-08-07T19:17:58.962Z,17.19
2022-08-07T19:20:39.414Z,17.08
2022-08-07T19:23:57.881Z,16.99
2022-08-07T19:27:01.670Z,16.91
2022-08-07T19:31:06.122Z,16.87
2022-08-07T19:32:25.878Z,16.79
2022-08-07T19:35:00.301Z,16.68
2022-08-07T19:37:56.929Z,16.56
2022-08-07T19:40:16.937Z,16.45
2022-08-07T19:42:59.988Z,16.66
2022-08-07T19:46:01.267Z,17.61
2022-08-07T19:48:18.479Z,18.49
2022-08-07T19:50:53.222Z,18.98
2022-08-07T19:54:34.718Z,19.16
2022-08-07T19:56:59.714Z,18.56
2022-08-07T19:58:58.659Z,17.99
2022-08-07T20:01:55.866Z,17.66
2022-08-07T20:04:37.328Z,17.38
2022-08-07T20:07:09.070Z,17.14
2022-08-07T20:10:33.763Z,16.93
2022-08-07T20:12:35.975Z,16.71
2022-08-07T20:15:15.573Z,16.76
2022-08-07T20:18:01.742Z,17.69
2022-08-07T20:20:34.997Z,18.45
2022-08-07T20:23:10.863Z,18.90
2022-08-07T20:25:57.556Z,18.97
2022-08-07T20:28:29.283Z,18.28
2022-08-07T20:30:58.155Z,17.63
2022-08-07T20:33:38.059Z,17.16
2022-08-07T20:36:07.202Z,16.78
2022-08-07T20:38:35.712Z,16.49
2022-08-07T20:41:27.794Z,16.27
2022-08-07T20:44:02.285Z,16.31
2022-08-07T20:46:34.586Z,17.11
2022-08-07T20:49:58.082Z,17.97
2022-08-07T20:52:09.347Z,18.50
2022-08-07T20:54:55.462Z,18.70
2022-08-07T20:57:28.804Z,18.51
2022-08-07T21:00:08.103Z,17.78
2022-08-07T21:02:58.749Z,17.19
2022-08-07T21:05:50.826Z,16.71
2022-08-07T21:08:35.005Z,16.32
2022-08-07T21:11:16.291Z,16.03
2022-08-07T21:14:16.148Z,16.01
2022-08-07T21:17:06.845Z,16.93
2022-08-07T21:20:00.500Z,17.62
2022-08-07T21:22:25.615Z,18.01
2022-08-07T21:25:12.124Z,18.06
2022-08-07T21:28:01.838Z,17.41
2022-08-07T21:31:09.962Z,16.76
2022-08-07T21:33:51.010Z,16.24
2022-08-07T21:36:50.345Z,15.92
2022-08-07T21:40:27.629Z,15.64
2022-08-07T21:43:25.297Z,15.94
2022-08-07T21:46:39.755Z,16.88
2022-08-07T21:49:25.649Z,17.46
2022-08-07T21:52:12.040Z,17.84
2022-08-07T21:55:19.396Z,17.79
2022-08-07T21:58:30.224Z,16.87
2022-08-07T22:01:05.066Z,16.14
2022-08-07T22:03:49.999Z,15.73
2022-08-07T22:06:31.583Z,15.45
2022-08-07T22:09:08.076Z,15.45
2022-08-07T22:12:05.849Z,16.18
2022-08-07T22:14:44.122Z,16.84
2022-08-07T22:17:35.995Z,17.33
2022-08-07T22:20:28.522Z,17.48
2022-08-07T22:23:13.063Z,16.70
2022-08-07T22:26:20.018Z,16.01
2022-08-07T22:29:13.746Z,15.49
2022-08-07T22:32:31.550Z,15.13
2022-08-07T22:35:02.085Z,15.23
2022-08-07T22:38:02.907Z,16.01
2022-08-07T22:40:43.180Z,16.77
2022-08-07T22:43:14.572Z,17.21
2022-08-07T22:46:56.016Z,17.53
2022-08-07T22:49:16.157Z,17.29
2022-08-07T22:52:11.955Z,16.41
2022-08-07T22:55:22.817Z,15.64
2022-08-07T22:58:22.050Z,15.11
2022-08-07T23:01:15.457Z,15.06
2022-08-07T23:04:34.114Z,15.86
2022-08-07T23:08:22.604Z,16.65
2022-08-07T23:11:20.087Z,17.20
2022-08-07T23:14:17.487Z,17.49
2022-08-07T23:17:01.853Z,17.75
2022-08-07T23:20:40.622Z,17.69
2022-08-07T23:24:04.250Z,16.66
2022-08-07T23:27:06.228Z,15.93
2022-08-07T23:30:39.637Z,15.43
2022-08-07T23:34:34.603Z,15.50
2022-08-07T23:37:17.732Z,16.46
2022-08-07T23:40:18.099Z,17.06
2022-08-07T23:43:41.528Z,17.47
2022-08-07T23:46:35.918Z,17.80
2022-08-07T23:49:50.690Z,17.73
2022-08-07T23:53:05.382Z,16.77
2022-08-07T23:55:55.298Z,16.02
